Time;durP1;ratioP1;P1;durP2;ratioP2;P2;SDS_P1;SDS_P2;PMS_P1;PMS_P2;Temp;Humidity;BMP_temperature;BMP_pressure;BME280_temperature;BME280_humidity;BME280_pressure;Samples;Min_cycle;Max_cycle;Signal;HPM_P1;HPM_P2
2022/01/17 00:00:24;;;;;;;23.77;16.73;;;6.30;64.80;;;;;;5090616;28;20047;-73
2022/01/17 00:02:52;;;;;;;23.95;16.42;;;6.30;64.50;;;;;;5089255;28;20047;-70
2022/01/17 00:05:18;;;;;;;24.45;15.55;;;6.30;64.40;;;;;;5088693;28;20024;-73
2022/01/17 00:07:44;;;;;;;24.05;16.80;;;6.30;64.20;;;;;;5090767;28;20028;-72
2022/01/17 00:10:10;;;;;;;23.60;15.95;;;6.30;64.30;;;;;;5088154;28;20474;-67
2022/01/17 00:12:43;;;;;;;24.30;16.08;;;6.40;64.00;;;;;;5085989;28;20084;-72
2022/01/17 00:15:16;;;;;;;23.48;15.57;;;6.50;63.70;;;;;;5069825;28;20029;-67
2022/01/17 00:17:44;;;;;;;21.92;15.18;;;6.50;63.60;;;;;;5047492;28;20090;-72
2022/01/17 00:20:14;;;;;;;21.70;15.02;;;6.50;63.30;;;;;;5068182;28;20048;-68
2022/01/17 00:22:39;;;;;;;22.75;15.40;;;6.40;64.10;;;;;;5052477;28;20025;-72
2022/01/17 00:25:08;;;;;;;21.13;14.52;;;6.50;63.20;;;;;;5070272;28;20359;-72
2022/01/17 00:27:35;;;;;;;22.38;14.60;;;6.50;63.10;;;;;;5052347;28;20028;-71
2022/01/17 00:30:04;;;;;;;19.75;14.13;;;6.50;63.00;;;;;;5070592;28;20051;-73
2022/01/17 00:32:31;;;;;;;19.27;13.23;;;6.60;63.00;;;;;;5069402;28;20110;-73
2022/01/17 00:34:57;;;;;;;21.00;14.05;;;6.50;63.00;;;;;;5072750;28;20052;-72
2022/01/17 00:37:23;;;;;;;21.33;14.98;;;6.50;63.00;;;;;;5054679;28;20028;-72
2022/01/17 00:39:49;;;;;;;20.35;13.45;;;6.60;63.00;;;;;;5073206;28;20393;-72
2022/01/17 00:42:15;;;;;;;23.00;15.48;;;6.60;63.20;;;;;;5072595;28;20024;-72
2022/01/17 00:44:41;;;;;;;22.27;15.38;;;6.60;63.10;;;;;;5073724;28;20032;-72
2022/01/17 00:47:26;;;;;;;24.50;16.48;;;6.50;63.40;;;;;;5073344;28;20028;-66
2022/01/17 00:49:51;;;;;;;21.73;14.98;;;6.50;63.70;;;;;;5073544;28;20419;-72
2022/01/17 00:52:17;;;;;;;24.67;16.98;;;6.50;63.80;;;;;;5053565;28;20032;-71
2022/01/17 00:54:43;;;;;;;23.77;16.30;;;6.40;64.30;;;;;;5054959;28;20055;-72
2022/01/17 00:57:10;;;;;;;23.45;16.25;;;6.30;64.40;;;;;;5072509;28;20024;-67
2022/01/17 00:59:36;;;;;;;28.38;15.68;;;6.30;64.40;;;;;;5073281;28;20031;-72
2022/01/17 01:02:02;;;;;;;23.70;16.35;;;6.30;65.10;;;;;;5072466;28;20021;-73
2022/01/17 01:04:28;;;;;;;25.55;16.85;;;6.20;65.00;;;;;;5054815;28;20086;-73
2022/01/17 01:06:54;;;;;;;27.75;17.67;;;6.20;65.00;;;;;;5054900;28;20381;-74
2022/01/17 01:09:19;;;;;;;24.35;16.63;;;6.20;64.90;;;;;;5071032;28;20465;-70
2022/01/17 01:11:45;;;;;;;24.38;16.65;;;6.20;65.30;;;;;;5072952;28;20025;-73
2022/01/17 01:14:11;;;;;;;24.90;16.63;;;6.20;65.30;;;;;;5082895;28;20078;-66
2022/01/17 01:16:37;;;;;;;25.63;16.65;;;6.10;65.30;;;;;;5093521;28;20024;-72
2022/01/17 01:19:26;;;;;;;24.95;15.88;;;6.10;65.50;;;;;;5093332;28;20032;-72
2022/01/17 01:30:01;;;;;;;23.90;15.32;;;6.10;65.40;;;;;;5093259;28;19910;-71
2022/01/17 01:32:36;;;;;;;21.40;14.50;;;6.10;65.20;;;;;;5090547;28;20127;-72
2022/01/17 01:35:04;;;;;;;21.25;15.00;;;6.20;65.00;;;;;;5093017;28;20085;-72
2022/01/17 01:37:30;;;;;;;19.90;13.57;;;6.20;64.80;;;;;;5090854;28;20115;-72
2022/01/17 01:39:56;;;;;;;19.65;13.60;;;6.20;64.70;;;;;;5090254;28;20154;-72
2022/01/17 01:42:23;;;;;;;20.23;14.38;;;6.20;64.80;;;;;;5091818;28;20479;-72
2022/01/17 01:44:51;;;;;;;19.45;13.35;;;6.20;64.80;;;;;;5091209;28;20038;-72
2022/01/17 01:47:20;;;;;;;22.67;14.63;;;6.10;65.00;;;;;;5092227;28;20031;-72
2022/01/17 01:49:46;;;;;;;21.38;14.82;;;6.10;65.00;;;;;;5093013;28;20097;-72
2022/01/17 01:52:11;;;;;;;21.80;14.82;;;6.10;65.00;;;;;;5091352;28;20461;-66
2022/01/17 01:54:37;;;;;;;20.88;14.68;;;6.10;65.40;;;;;;5092261;28;20473;-72
2022/01/17 01:57:04;;;;;;;22.15;15.68;;;6.10;65.50;;;;;;5090321;28;20090;-72
2022/01/17 01:59:30;;;;;;;22.67;15.52;;;6.10;65.30;;;;;;5090466;28;20030;-72
2022/01/17 02:01:55;;;;;;;21.02;14.65;;;6.10;65.50;;;;;;5074409;28;20115;-71
2022/01/17 02:04:21;;;;;;;19.52;13.90;;;6.10;65.50;;;;;;5090180;28;20111;-73
2022/01/17 02:06:47;;;;;;;23.92;15.38;;;6.10;65.70;;;;;;5091041;28;20093;-71
2022/01/17 02:09:13;;;;;;;25.27;15.65;;;6.00;66.10;;;;;;5091202;28;20024;-71
2022/01/17 02:11:39;;;;;;;22.42;15.02;;;6.00;66.00;;;;;;5091961;28;20047;-72
2022/01/17 02:14:05;;;;;;;24.60;16.10;;;6.00;65.90;;;;;;5075189;28;20084;-72
2022/01/17 02:16:32;;;;;;;22.33;14.88;;;6.00;66.20;;;;;;5053408;28;20119;-72
2022/01/17 02:18:58;;;;;;;21.52;14.23;;;6.00;66.10;;;;;;5050379;28;20126;-69
2022/01/17 02:21:44;;;;;;;23.70;14.95;;;6.00;66.10;;;;;;5051261;28;20025;-72
2022/01/17 02:24:10;;;;;;;22.02;14.60;;;5.90;66.30;;;;;;5051189;28;20033;-71
2022/01/17 02:26:36;;;;;;;22.40;15.55;;;5.90;66.20;;;;;;5051855;28;20036;-72
2022/01/17 02:29:02;;;;;;;22.63;15.43;;;6.00;66.30;;;;;;5051595;28;20518;-72
2022/01/17 02:31:28;;;;;;;23.98;15.35;;;6.00;66.10;;;;;;5063705;28;20579;-72
2022/01/17 02:33:54;;;;;;;22.23;15.40;;;6.00;66.20;;;;;;5071699;28;20542;-72
2022/01/17 02:36:23;;;;;;;21.02;15.07;;;5.90;66.10;;;;;;5070601;28;20032;-70
2022/01/17 02:38:50;;;;;;;24.60;15.73;;;5.90;66.40;;;;;;5070994;28;20035;-71
2022/01/17 02:41:15;;;;;;;22.40;15.32;;;5.90;66.40;;;;;;5052804;28;20028;-71
2022/01/17 02:43:42;;;;;;;22.13;14.93;;;5.90;66.50;;;;;;5053448;28;20116;-71
2022/01/17 02:48:36;;;;;;;20.10;14.35;;;6.00;66.40;;;;;;5069817;28;20089;-73
2022/01/17 02:51:03;;;;;;;21.45;14.98;;;6.00;66.60;;;;;;5071348;28;20028;-70
2022/01/17 02:53:29;;;;;;;21.60;15.13;;;6.00;67.00;;;;;;5052335;28;20052;-72
2022/01/17 02:56:04;;;;;;;22.48;15.10;;;5.90;67.50;;;;;;5052583;28;20041;-72
2022/01/17 02:58:34;;;;;;;20.48;14.32;;;5.90;67.00;;;;;;5070395;28;20043;-74
2022/01/17 03:01:06;;;;;;;22.08;14.65;;;5.90;67.30;;;;;;5053416;28;20043;-71
2022/01/17 03:03:33;;;;;;;22.38;15.23;;;5.90;67.80;;;;;;5051544;28;20028;-72
2022/01/17 03:05:59;;;;;;;21.08;15.35;;;5.90;67.70;;;;;;5071052;28;20480;-72
2022/01/17 03:08:27;;;;;;;21.23;15.50;;;5.90;67.50;;;;;;5069829;28;20033;-72
2022/01/17 03:10:54;;;;;;;20.20;14.40;;;6.00;67.30;;;;;;5070847;28;20025;-72
2022/01/17 03:13:25;;;;;;;20.55;14.73;;;6.00;67.40;;;;;;5070153;28;20056;-72
2022/01/17 03:15:59;;;;;;;19.92;14.27;;;6.10;67.30;;;;;;5070996;28;20045;-72
2022/01/17 03:18:28;;;;;;;19.25;13.93;;;6.10;67.30;;;;;;5052326;28;20102;-70
2022/01/17 03:20:54;;;;;;;19.63;14.15;;;6.10;67.20;;;;;;5069952;28;20484;-72
2022/01/17 03:23:19;;;;;;;21.13;14.43;;;6.20;67.00;;;;;;5069872;28;20021;-72
2022/01/17 03:25:46;;;;;;;18.50;12.93;;;6.20;67.10;;;;;;5071024;28;20122;-73
2022/01/17 03:28:12;;;;;;;18.75;13.35;;;6.20;67.10;;;;;;5070587;28;20031;-68
2022/01/17 03:30:38;;;;;;;20.10;13.93;;;6.30;66.80;;;;;;5070752;28;20025;-72
2022/01/17 03:33:06;;;;;;;17.83;12.48;;;6.30;66.60;;;;;;5070945;28;20033;-74
2022/01/17 03:35:33;;;;;;;16.67;12.07;;;6.30;66.60;;;;;;5070088;28;20458;-71
2022/01/17 03:37:59;;;;;;;16.92;12.48;;;6.30;66.40;;;;;;5051765;28;20052;-72
2022/01/17 03:40:25;;;;;;;18.02;12.38;;;6.30;66.20;;;;;;5069520;28;20052;-71
2022/01/17 03:42:51;;;;;;;14.55;11.45;;;6.40;66.10;;;;;;5070499;28;20082;-72
2022/01/17 03:45:17;;;;;;;17.25;12.50;;;6.40;66.00;;;;;;5052425;28;20433;-72
2022/01/17 03:47:48;;;;;;;17.10;12.32;;;6.40;66.20;;;;;;5070770;28;20024;-72
2022/01/17 03:50:17;;;;;;;16.48;11.75;;;6.40;66.20;;;;;;5070244;28;20074;-71
2022/01/17 03:52:43;;;;;;;24.23;12.43;;;6.40;66.20;;;;;;5069467;28;20333;-73
2022/01/17 03:55:18;;;;;;;15.32;10.73;;;6.50;66.40;;;;;;5070181;28;20036;-73
2022/01/17 03:57:44;;;;;;;18.60;12.73;;;6.50;66.60;;;;;;5070830;28;20469;-72
2022/01/17 04:00:32;;;;;;;16.33;11.45;;;6.40;66.60;;;;;;5070627;28;20094;-67
2022/01/17 04:02:59;;;;;;;16.52;11.68;;;6.50;66.70;;;;;;5070669;28;20178;-72
2022/01/17 04:05:25;;;;;;;17.33;11.48;;;6.50;66.50;;;;;;5052935;28;20051;-73
2022/01/17 04:07:51;;;;;;;18.00;11.98;;;6.50;66.20;;;;;;5055228;28;20028;-71
2022/01/17 04:10:17;;;;;;;16.10;11.15;;;6.50;66.10;;;;;;5072933;28;20399;-73
2022/01/17 04:12:44;;;;;;;15.70;10.95;;;6.60;65.80;;;;;;5059995;28;20058;-72
2022/01/17 04:15:11;;;;;;;14.73;10.82;;;6.60;65.60;;;;;;5094273;28;20040;-67
2022/01/17 04:17:40;;;;;;;18.23;10.93;;;6.60;65.60;;;;;;5094545;28;20020;-75
2022/01/17 04:20:09;;;;;;;15.00;10.45;;;6.60;65.50;;;;;;5088526;28;20025;-74
2022/01/17 04:22:43;;;;;;;14.38;10.50;;;6.60;65.60;;;;;;5072477;28;20430;-72
2022/01/17 04:25:10;;;;;;;14.02;10.10;;;6.60;65.50;;;;;;5077538;28;20043;-67
2022/01/17 04:27:36;;;;;;;15.27;10.50;;;6.70;65.40;;;;;;5093832;28;20030;-73
2022/01/17 04:30:05;;;;;;;13.85;10.10;;;6.60;65.30;;;;;;5094476;28;20071;-72
2022/01/17 04:32:31;;;;;;;13.68;10.35;;;6.60;65.30;;;;;;5093418;28;20031;-72
2022/01/17 04:34:57;;;;;;;15.10;10.80;;;6.60;65.60;;;;;;5094633;28;20032;-73
2022/01/17 04:37:22;;;;;;;15.65;10.90;;;6.60;65.80;;;;;;5092332;28;20468;-72
2022/01/17 04:39:48;;;;;;;14.63;10.73;;;6.60;65.80;;;;;;5092715;28;20111;-72
2022/01/17 04:42:16;;;;;;;14.05;9.95;;;6.60;65.90;;;;;;5092202;28;20028;-67
2022/01/17 04:47:31;;;;;;;17.92;12.15;;;6.60;66.80;;;;;;5093192;28;20431;-70
2022/01/17 04:49:57;;;;;;;18.38;11.95;;;6.60;67.00;;;;;;5093902;28;20024;-73
2022/01/17 04:52:24;;;;;;;15.43;11.25;;;6.60;67.30;;;;;;5093064;28;20103;-71
2022/01/17 04:54:54;;;;;;;17.80;12.45;;;6.60;67.70;;;;;;5093466;28;20063;-71
2022/01/17 04:57:21;;;;;;;17.85;12.60;;;6.50;67.60;;;;;;5093015;28;20025;-71
2022/01/17 04:59:48;;;;;;;16.00;11.45;;;6.50;67.60;;;;;;5092269;28;20032;-71
2022/01/17 05:02:15;;;;;;;18.35;12.30;;;6.50;67.70;;;;;;5092921;28;20059;-67
2022/01/17 05:04:44;;;;;;;15.98;11.60;;;6.50;67.70;;;;;;5093297;28;20103;-72
2022/01/17 05:07:09;;;;;;;17.13;11.85;;;6.60;67.50;;;;;;5093483;28;20099;-71
2022/01/17 05:09:38;;;;;;;18.77;11.90;;;6.60;67.40;;;;;;5092952;28;20031;-72
2022/01/17 05:12:04;;;;;;;17.20;11.35;;;6.60;67.00;;;;;;5093501;28;20024;-73
2022/01/17 05:14:30;;;;;;;15.38;11.25;;;6.60;66.90;;;;;;5072946;28;20446;-71
2022/01/17 05:17:04;;;;;;;16.83;12.25;;;6.60;66.90;;;;;;5073249;28;20077;-72
2022/01/17 05:19:48;;;;;;;17.77;12.27;;;6.70;66.80;;;;;;5053743;28;20502;-70
2022/01/17 05:22:18;;;;;;;19.58;12.80;;;6.70;66.90;;;;;;5072565;28;20020;-70
2022/01/17 05:24:44;;;;;;;20.17;13.68;;;6.80;67.00;;;;;;5073029;28;20029;-73
2022/01/17 05:27:10;;;;;;;19.00;13.65;;;6.80;67.30;;;;;;5054830;28;20437;-66
2022/01/17 05:29:36;;;;;;;20.15;13.50;;;6.80;67.00;;;;;;5072408;28;20488;-73
2022/01/17 05:32:02;;;;;;;16.73;13.15;;;6.90;66.90;;;;;;5071363;28;20439;-72
2022/01/17 05:34:28;;;;;;;19.02;13.07;;;6.90;66.80;;;;;;5053726;28;20048;-72
2022/01/17 05:36:54;;;;;;;22.80;13.75;;;6.90;67.00;;;;;;5072483;28;20032;-72
2022/01/17 05:39:19;;;;;;;21.25;13.80;;;6.80;67.20;;;;;;5053958;28;20159;-73
2022/01/17 05:41:45;;;;;;;18.60;13.15;;;6.80;67.30;;;;;;5072375;28;20040;-73
2022/01/17 05:44:11;;;;;;;22.30;14.63;;;6.80;67.30;;;;;;5054109;28;20451;-67
2022/01/17 05:46:37;;;;;;;22.15;14.35;;;6.80;67.40;;;;;;5054100;28;20104;-73
2022/01/17 05:49:03;;;;;;;19.80;14.45;;;6.80;67.50;;;;;;5069944;28;20115;-70
2022/01/17 05:51:29;;;;;;;21.63;14.95;;;6.90;67.30;;;;;;5044792;28;20013;-73
2022/01/17 05:53:55;;;;;;;28.10;14.85;;;6.90;67.50;;;;;;5052820;28;20032;-66
2022/01/17 05:56:21;;;;;;;20.38;14.43;;;6.90;67.70;;;;;;5051013;28;20523;-65
2022/01/17 05:58:47;;;;;;;21.83;16.23;;;6.90;67.60;;;;;;5071345;28;20033;-66
2022/01/17 06:01:14;;;;;;;23.67;16.45;;;6.90;67.50;;;;;;5058362;28;20025;-65
2022/01/17 06:03:40;;;;;;;22.67;14.90;;;6.80;67.50;;;;;;5051807;28;20044;-70
2022/01/17 06:06:06;;;;;;;23.08;16.20;;;6.90;67.60;;;;;;5051822;28;20056;-68
2022/01/17 06:08:32;;;;;;;23.42;15.05;;;6.80;67.60;;;;;;5064588;28;20110;-68
2022/01/17 06:10:59;;;;;;;23.33;15.73;;;6.80;67.30;;;;;;5053002;28;20040;-75
2022/01/17 06:13:24;;;;;;;23.08;15.68;;;6.90;67.30;;;;;;5065263;28;20044;-76
2022/01/17 06:15:50;;;;;;;22.17;15.82;;;6.90;67.10;;;;;;5090664;28;20038;-75
2022/01/17 06:18:16;;;;;;;21.67;15.88;;;6.90;67.10;;;;;;5091101;28;20687;-73
2022/01/17 06:20:42;;;;;;;20.40;14.68;;;6.90;67.00;;;;;;5088473;28;20024;-73
2022/01/17 06:23:08;;;;;;;23.45;15.65;;;6.80;67.40;;;;;;5084388;28;20127;-71
2022/01/17 06:25:34;;;;;;;22.92;15.00;;;6.80;67.30;;;;;;5091408;28;20281;-74
2022/01/17 06:28:00;;;;;;;22.13;14.57;;;6.70;67.40;;;;;;5090037;28;20073;-70
2022/01/17 06:30:26;;;;;;;22.02;15.35;;;6.80;68.10;;;;;;5089315;28;20028;-74
2022/01/17 06:32:52;;;;;;;24.10;14.52;;;6.80;67.70;;;;;;5090131;28;20024;-72
2022/01/17 06:35:19;;;;;;;22.38;14.68;;;6.80;67.30;;;;;;5089639;28;20594;-72
2022/01/17 06:37:45;;;;;;;22.65;14.88;;;6.80;67.30;;;;;;5092215;28;20016;-74
2022/01/17 06:40:12;;;;;;;21.38;14.65;;;6.80;66.90;;;;;;5092258;28;20505;-73
2022/01/17 06:42:38;;;;;;;23.27;14.80;;;6.80;67.00;;;;;;5091906;28;20181;-74
2022/01/17 06:45:05;;;;;;;21.27;14.55;;;6.90;66.80;;;;;;5091378;28;20064;-73
2022/01/17 06:47:35;;;;;;;22.15;14.90;;;6.90;66.70;;;;;;5091064;28;20081;-72
2022/01/17 06:50:04;;;;;;;21.35;14.00;;;6.90;66.60;;;;;;5090433;28;20031;-72
2022/01/17 06:52:30;;;;;;;21.88;14.65;;;7.00;66.50;;;;;;5091923;28;20464;-75
2022/01/17 06:54:56;;;;;;;23.00;14.63;;;7.00;66.40;;;;;;5092071;28;20032;-73
2022/01/17 06:57:23;;;;;;;23.95;13.55;;;7.10;66.20;;;;;;5091222;28;20035;-72
2022/01/17 06:59:49;;;;;;;22.25;14.43;;;7.10;65.40;;;;;;5091330;28;20023;-71
2022/01/17 07:02:15;;;;;;;19.15;12.73;;;7.10;65.50;;;;;;5090493;28;20030;-74
2022/01/17 07:04:41;;;;;;;23.17;14.40;;;7.10;65.70;;;;;;5089819;28;20037;-73
2022/01/17 07:07:08;;;;;;;19.13;14.07;;;7.10;65.90;;;;;;5091091;28;20020;-73
2022/01/17 07:09:36;;;;;;;23.05;14.30;;;7.10;65.70;;;;;;5088829;28;20035;-72
2022/01/17 07:12:03;;;;;;;21.20;14.50;;;7.10;65.50;;;;;;5089808;28;20075;-74
2022/01/17 07:14:29;;;;;;;22.23;14.65;;;7.10;65.40;;;;;;5071337;28;20056;-74
2022/01/17 07:16:56;;;;;;;26.48;15.45;;;7.20;65.50;;;;;;5070842;28;20067;-75
2022/01/17 07:19:23;;;;;;;21.13;14.35;;;7.20;65.70;;;;;;5070855;28;20051;-71
2022/01/17 07:21:50;;;;;;;24.15;16.55;;;7.20;65.70;;;;;;5052364;28;20025;-73
2022/01/17 07:24:16;;;;;;;23.58;16.02;;;7.10;65.70;;;;;;5070215;28;20033;-72
2022/01/17 07:26:42;;;;;;;23.33;15.90;;;7.10;65.80;;;;;;5054267;28;20051;-73
2022/01/17 07:29:26;;;;;;;20.33;14.35;;;7.20;66.00;;;;;;5057456;28;20355;-73
2022/01/17 07:31:54;;;;;;;27.83;16.23;;;7.20;66.30;;;;;;5054901;28;20039;-73
2022/01/17 07:34:20;;;;;;;27.88;16.35;;;7.20;66.20;;;;;;5069292;28;20033;-73
2022/01/17 07:36:46;;;;;;;27.40;16.30;;;7.20;66.20;;;;;;5062805;28;20112;-74
2022/01/17 07:39:12;;;;;;;29.95;16.45;;;7.20;66.30;;;;;;5063502;28;20460;-72
2022/01/17 07:41:37;;;;;;;25.85;16.08;;;7.20;66.40;;;;;;5057200;28;20025;-73
2022/01/17 07:44:05;;;;;;;22.42;15.82;;;7.20;66.20;;;;;;5070299;28;20093;-73
2022/01/17 07:46:47;;;;;;;25.23;16.27;;;7.10;66.40;;;;;;5050960;28;20028;-73
2022/01/17 07:49:19;;;;;;;23.50;15.88;;;7.20;66.40;;;;;;5064586;28;20212;-68
2022/01/17 07:54:43;;;;;;;25.02;16.27;;;7.10;66.80;;;;;;5073706;28;20052;-74
2022/01/17 07:57:11;;;;;;;23.83;16.38;;;7.20;66.00;;;;;;5062713;28;20459;-73
2022/01/17 07:59:37;;;;;;;24.92;16.10;;;7.20;65.80;;;;;;5074585;28;20055;-74
2022/01/17 08:02:03;;;;;;;24.55;14.68;;;7.20;65.70;;;;;;5057381;28;20025;-73
2022/01/17 08:04:30;;;;;;;25.48;15.40;;;7.20;66.00;;;;;;5075009;28;20028;-74
2022/01/17 08:06:56;;;;;;;22.63;14.82;;;7.30;65.60;;;;;;5074637;28;20487;-65
2022/01/17 08:09:31;;;;;;;24.30;16.05;;;7.30;65.60;;;;;;5056410;28;20115;-76
2022/01/17 08:11:57;;;;;;;23.23;14.48;;;7.30;65.40;;;;;;5074452;28;20020;-71
2022/01/17 08:14:24;;;;;;;23.15;12.95;;;7.30;65.50;;;;;;5067553;28;20060;-71
2022/01/17 08:16:51;;;;;;;25.25;14.00;;;7.30;66.20;;;;;;5076918;28;20031;-70
2022/01/17 08:19:17;;;;;;;22.98;13.43;;;7.30;65.10;;;;;;5074450;28;20385;-67
2022/01/17 08:21:46;;;;;;;21.92;12.30;;;7.30;65.30;;;;;;5072404;28;20106;-68
2022/01/17 08:24:12;;;;;;;20.10;11.95;;;7.40;65.00;;;;;;5074906;28;20059;-70
2022/01/17 08:26:42;;;;;;;21.52;12.02;;;7.40;64.60;;;;;;5074154;28;20025;-71
2022/01/17 08:29:09;;;;;;;20.77;12.40;;;7.40;64.60;;;;;;5057224;28;20028;-70
2022/01/17 08:31:35;;;;;;;19.27;11.38;;;7.50;64.50;;;;;;5072696;28;20032;-67
2022/01/17 08:34:00;;;;;;;19.33;12.15;;;7.50;64.30;;;;;;5056516;28;20104;-68
2022/01/17 08:36:26;;;;;;;16.08;10.70;;;7.60;64.00;;;;;;5056084;28;20436;-66
2022/01/17 08:38:53;;;;;;;19.80;11.60;;;7.60;64.60;;;;;;5074636;28;20462;-72
2022/01/17 08:41:19;;;;;;;14.88;9.40;;;7.60;63.70;;;;;;5056256;28;20121;-67
2022/01/17 08:43:46;;;;;;;17.42;11.07;;;7.70;63.60;;;;;;5056408;28;20032;-68
2022/01/17 08:46:12;;;;;;;15.73;9.75;;;7.70;63.10;;;;;;5056330;28;20082;-67
2022/01/17 08:48:39;;;;;;;16.27;9.13;;;7.60;63.80;;;;;;5053131;28;20322;-69
2022/01/17 08:51:05;;;;;;;13.05;8.30;;;7.60;63.90;;;;;;5055808;28;20033;-70
2022/01/17 08:53:32;;;;;;;16.98;8.93;;;7.60;63.20;;;;;;5072521;28;20032;-69
2022/01/17 08:55:58;;;;;;;11.52;7.60;;;7.70;63.30;;;;;;5055496;28;20062;-70
2022/01/17 08:58:24;;;;;;;14.80;8.45;;;7.60;63.60;;;;;;5072756;28;20032;-67
2022/01/17 09:00:50;;;;;;;11.60;7.70;;;7.70;63.20;;;;;;5055785;28;20035;-67
2022/01/17 09:03:16;;;;;;;16.17;8.35;;;7.70;63.00;;;;;;5072614;28;20032;-68
2022/01/17 09:05:42;;;;;;;11.00;7.28;;;7.80;62.90;;;;;;5072498;28;20029;-68
2022/01/17 09:08:09;;;;;;;10.45;6.70;;;7.80;63.00;;;;;;5073169;28;20422;-68
2022/01/17 09:10:55;;;;;;;14.30;7.40;;;7.80;62.80;;;;;;5055471;28;20017;-68
2022/01/17 09:13:21;;;;;;;15.45;6.95;;;7.80;63.80;;;;;;5082360;28;20381;-68
2022/01/17 09:15:47;;;;;;;15.98;7.53;;;7.80;63.10;;;;;;5075327;28;20036;-69
2022/01/17 09:18:14;;;;;;;18.38;7.18;;;7.80;63.50;;;;;;5088140;28;20032;-59
2022/01/17 09:20:40;;;;;;;11.52;7.60;;;7.80;63.30;;;;;;5093121;28;20530;-67
2022/01/17 09:23:06;;;;;;;15.50;7.47;;;7.80;63.70;;;;;;5089916;28;20111;-65
2022/01/17 09:25:33;;;;;;;16.20;7.65;;;7.80;63.90;;;;;;5089152;28;20103;-74
2022/01/17 09:27:58;;;;;;;16.23;7.43;;;7.90;64.10;;;;;;5093223;28;20028;-75
2022/01/17 09:30:24;;;;;;;16.45;8.88;;;7.80;63.40;;;;;;5093079;28;20103;-66
2022/01/17 09:32:50;;;;;;;14.32;7.88;;;7.80;63.60;;;;;;5089231;28;20056;-73
2022/01/17 09:35:16;;;;;;;16.90;8.23;;;7.90;63.50;;;;;;5063832;28;20122;-77
2022/01/17 09:37:42;;;;;;;12.35;8.02;;;7.90;63.40;;;;;;5059478;28;20237;-77
2022/01/17 09:40:08;;;;;;;15.55;8.15;;;8.00;63.10;;;;;;5093467;28;20440;-74
2022/01/17 09:42:36;;;;;;;18.58;7.90;;;8.00;63.50;;;;;;5075108;28;20132;-69
2022/01/17 09:45:11;;;;;;;15.77;8.07;;;7.90;63.80;;;;;;5059781;28;20040;-66
2022/01/17 09:47:37;;;;;;;19.08;8.25;;;7.90;63.50;;;;;;5074611;28;20059;-68
2022/01/17 09:50:08;;;;;;;14.43;7.32;;;8.00;63.30;;;;;;5092942;28;20362;-66
2022/01/17 09:52:35;;;;;;;12.85;8.27;;;8.00;63.20;;;;;;5092699;28;20024;-68
2022/01/17 09:55:14;;;;;;;13.75;7.85;;;8.10;63.30;;;;;;5074892;28;20059;-69
2022/01/17 09:57:45;;;;;;;13.32;8.60;;;8.10;63.20;;;;;;5086526;28;20030;-64
2022/01/17 10:00:13;;;;;;;15.50;8.00;;;8.00;63.40;;;;;;5092838;28;20468;-64
2022/01/17 10:02:40;;;;;;;21.45;9.63;;;8.00;63.30;;;;;;5092564;28;20024;-64
2022/01/17 10:05:08;;;;;;;18.15;7.95;;;8.00;63.20;;;;;;5092432;28;20028;-64
2022/01/17 10:08:04;;;;;;;20.02;8.85;;;8.00;63.50;;;;;;5074063;28;20127;-65
2022/01/17 10:11:02;;;;;;;14.55;9.02;;;8.00;63.30;;;;;;5085598;28;20081;-64
2022/01/17 10:13:31;;;;;;;16.10;9.00;;;8.00;63.80;;;;;;5068169;28;20404;-65
2022/01/17 10:16:11;;;;;;;14.18;8.45;;;8.10;63.30;;;;;;5090060;28;20047;-64
2022/01/17 10:18:46;;;;;;;14.35;9.13;;;8.00;63.20;;;;;;5092310;28;20499;-64
2022/01/17 10:21:31;;;;;;;13.73;8.40;;;8.10;63.10;;;;;;5092973;28;20028;-63
2022/01/17 10:24:13;;;;;;;16.27;8.77;;;8.20;63.00;;;;;;5092493;28;20034;-68
2022/01/17 10:37:13;;;;;;;13.88;7.68;;;8.40;62.10;;;;;;5090199;28;20031;-70
2022/01/17 10:39:59;;;;;;;24.92;8.48;;;8.40;62.00;;;;;;5080863;28;20028;-69
2022/01/17 10:42:41;;;;;;;16.98;9.70;;;8.40;61.60;;;;;;5091372;28;20089;-66
2022/01/17 10:45:13;;;;;;;14.70;9.10;;;8.40;61.70;;;;;;5091996;28;20039;-68
2022/01/17 10:47:43;;;;;;;17.13;8.48;;;8.40;62.00;;;;;;5090531;28;20031;-67
2022/01/17 10:50:16;;;;;;;13.73;7.88;;;8.30;62.30;;;;;;5091378;28;20021;-69
2022/01/17 10:52:46;;;;;;;16.63;8.60;;;8.30;62.90;;;;;;5091646;28;20103;-68
2022/01/17 10:55:25;;;;;;;16.15;8.75;;;8.30;62.60;;;;;;5087990;28;20112;-69
2022/01/17 10:57:57;;;;;;;15.85;7.72;;;8.30;62.50;;;;;;5089744;28;20035;-70
2022/01/17 11:00:26;;;;;;;14.05;7.53;;;8.20;62.70;;;;;;5091990;28;20028;-70
2022/01/17 11:03:07;;;;;;;10.93;7.78;;;8.20;62.40;;;;;;5091411;28;20019;-69
2022/01/17 11:05:34;;;;;;;14.40;7.90;;;8.20;62.60;;;;;;5088509;28;20032;-70
2022/01/17 11:08:02;;;;;;;12.18;6.95;;;8.20;62.20;;;;;;5090566;28;20089;-69
2022/01/17 11:10:30;;;;;;;12.32;6.60;;;8.30;61.90;;;;;;5092237;28;20027;-69
2022/01/17 11:13:00;;;;;;;13.95;6.55;;;8.30;61.40;;;;;;5091116;28;20465;-69
2022/01/17 11:15:26;;;;;;;16.63;7.03;;;8.40;62.30;;;;;;5072937;28;20441;-68
2022/01/17 11:17:57;;;;;;;23.55;7.53;;;8.50;61.00;;;;;;5072358;28;20024;-67
2022/01/17 11:20:27;;;;;;;11.65;7.45;;;8.60;60.70;;;;;;5073148;28;20031;-65
2022/01/17 11:22:57;;;;;;;12.60;7.07;;;8.60;60.70;;;;;;5090815;28;20024;-67
2022/01/17 11:25:28;;;;;;;10.57;7.05;;;8.70;61.30;;;;;;5091672;28;20028;-67
2022/01/17 11:27:55;;;;;;;10.13;6.70;;;8.70;60.00;;;;;;5072632;28;20128;-69
2022/01/17 11:30:21;;;;;;;18.42;7.03;;;8.70;60.00;;;;;;5086331;28;20112;-66
2022/01/17 11:32:49;;;;;;;20.02;7.38;;;8.70;60.40;;;;;;5090675;28;20107;-67
2022/01/17 11:35:16;;;;;;;11.55;7.20;;;8.70;59.70;;;;;;5091648;28;20561;-68
2022/01/17 11:37:46;;;;;;;15.75;6.93;;;8.70;60.80;;;;;;5090033;28;20111;-67
2022/01/17 11:40:13;;;;;;;13.35;6.93;;;8.70;60.40;;;;;;5081403;28;20043;-66
2022/01/17 11:42:47;;;;;;;11.13;6.82;;;8.70;60.30;;;;;;5071719;28;20029;-68
2022/01/17 11:45:22;;;;;;;14.10;6.97;;;8.80;60.00;;;;;;5091269;28;20040;-67
2022/01/17 11:48:08;;;;;;;10.45;6.75;;;8.80;60.30;;;;;;5089790;28;20035;-67
2022/01/17 11:50:41;;;;;;;16.98;7.47;;;8.70;60.20;;;;;;5090982;28;20081;-67
2022/01/17 11:53:10;;;;;;;14.48;6.90;;;8.70;59.90;;;;;;5090334;28;20029;-66
2022/01/17 11:55:38;;;;;;;10.77;7.00;;;8.70;59.80;;;;;;5089913;28;20461;-67
2022/01/17 11:58:27;;;;;;;12.23;6.78;;;8.70;60.30;;;;;;5091381;28;20472;-67
2022/01/17 12:00:59;;;;;;;11.15;6.68;;;8.70;60.50;;;;;;5072953;28;20520;-66
2022/01/17 12:03:42;;;;;;;12.68;6.68;;;8.80;59.60;;;;;;5073045;28;20377;-66
2022/01/17 12:06:35;;;;;;;11.40;6.97;;;8.80;60.60;;;;;;5090776;28;20050;-69
2022/01/17 12:09:20;;;;;;;13.40;6.70;;;8.80;60.30;;;;;;5090743;28;20278;-68
2022/01/17 12:11:53;;;;;;;11.90;6.70;;;8.80;60.30;;;;;;5077471;28;20089;-66
2022/01/17 12:14:29;;;;;;;14.43;7.07;;;8.80;60.30;;;;;;5090914;28;20048;-67
2022/01/17 12:17:20;;;;;;;9.95;6.93;;;8.80;59.70;;;;;;5084058;28;20097;-66
2022/01/17 12:20:09;;;;;;;12.38;7.40;;;8.90;59.40;;;;;;5083849;28;20028;-67
2022/01/17 12:22:38;;;;;;;22.17;7.10;;;9.00;59.60;;;;;;5078592;28;20040;-68
2022/01/17 12:25:24;;;;;;;13.65;6.90;;;9.10;59.30;;;;;;5090607;28;20047;-68
2022/01/17 12:28:12;;;;;;;11.90;6.85;;;9.20;59.20;;;;;;5072066;28;20024;-70
2022/01/17 12:30:54;;;;;;;15.15;7.18;;;9.20;58.80;;;;;;5073579;28;20028;-65
2022/01/17 12:33:28;;;;;;;11.85;6.50;;;9.10;59.00;;;;;;5094318;28;20062;-64
2022/01/17 12:35:59;;;;;;;15.77;6.75;;;9.00;59.10;;;;;;5075254;28;20028;-64
2022/01/17 12:38:36;;;;;;;17.13;7.10;;;8.90;59.70;;;;;;5094420;28;20023;-61
2022/01/17 12:41:03;;;;;;;8.98;6.28;;;9.00;59.80;;;;;;5081294;28;20115;-61
2022/01/17 12:43:34;;;;;;;12.77;6.35;;;8.90;59.20;;;;;;5075274;28;20039;-64
2022/01/17 12:46:06;;;;;;;13.95;6.80;;;8.90;59.10;;;;;;5058058;28;20028;-63
2022/01/17 12:48:35;;;;;;;10.65;6.65;;;8.90;59.60;;;;;;5074564;28;20021;-63
2022/01/17 12:51:05;;;;;;;11.05;6.70;;;8.90;59.00;;;;;;5073901;28;20024;-64
2022/01/17 12:53:31;;;;;;;20.10;6.40;;;8.90;59.30;;;;;;5094142;28;20134;-64
2022/01/17 12:56:00;;;;;;;11.02;6.40;;;8.90;59.30;;;;;;5075110;28;20052;-64
2022/01/17 12:58:31;;;;;;;17.67;7.13;;;8.80;59.60;;;;;;5084927;28;20020;-64
2022/01/17 13:00:58;;;;;;;11.30;6.57;;;8.80;59.30;;;;;;5071832;28;20248;-63
2022/01/17 13:03:29;;;;;;;18.13;6.78;;;8.90;59.70;;;;;;5057819;28;20048;-64
2022/01/17 13:05:55;;;;;;;14.52;7.05;;;8.90;60.40;;;;;;5092428;28;20032;-64
2022/01/17 13:08:22;;;;;;;10.13;6.40;;;8.90;60.40;;;;;;5094204;28;20047;-64
2022/01/17 13:10:49;;;;;;;10.77;6.72;;;8.90;61.60;;;;;;5093832;28;20024;-64
2022/01/17 13:13:18;;;;;;;14.45;6.20;;;8.90;61.90;;;;;;5085434;28;20600;-64
2022/01/17 13:16:00;;;;;;;11.68;6.10;;;8.70;63.20;;;;;;5071888;28;20036;-64